Corinthiakos — A8UL2 — position and weather

sailwx.info

Track history (hours):
 
Tides and Currents Weather Stations Pressure Air Temp Water Temp Dewpoint Dewpoint Depression Visibility Wind Speed Wind Dir Waves Ship Positions

Corinthiakos

Last reported at 2016-May-16 04:26 UTC. Time now 2016-Jun-01 03:39 UTC.
Position N 01°54' E 102°21'.
Warning: this ship's position is 15 days out of date.

Length 262 m; draft 12.4 m.

Type: Cargo ship. MMSI: 636014516.

Date/timePositionNaut miles runAvg speedWind from/ knotsBaromVisibWave heightAir tempDewpointWater temp
2016-May-16 04:26N 01°54' E 102°21'1719.9
2016-May-16 03:33N 01°47' E 102°37'2020.0
2016-May-16 02:32N 01°39' E 102°55'4119.5
2016-May-16 00:25N 01°14' E 103°28'1618.8
2016-May-15 23:33N 01°09' E 103°43'1010.3
2016-May-15 22:33N 01°16' E 103°51'1 0.5
2016-May-15 21:32N 01°16' E 103°51'0 0.0
2016-May-15 20:32N 01°16' E 103°51'0 0.0
2016-May-15 19:32N 01°16' E 103°51'0 0.0
2016-May-15 18:29N 01°16' E 103°51'0 0.0
2016-May-15 17:29N 01°16' E 103°51'0 0.0
2016-May-15 16:32N 01°16' E 103°51'0 0.0
2016-May-15 15:32N 01°16' E 103°51'0 0.0
2016-May-15 14:29N 01°16' E 103°51'0 0.0
2016-May-15 13:29N 01°16' E 103°51'0 0.0
2016-May-15 12:32N 01°16' E 103°51'0 0.0
2016-May-15 11:32N 01°16' E 103°51'1 0.9
2016-May-15 10:34N 01°15' E 103°52'5 5.3
2016-May-15 09:34N 01°14' E 103°57'1211.8
2016-May-15 08:33N 01°17' E 104°09'  
2016-May-11 22:30N 21°52' E 114°25'1515.9
2016-May-11 21:33N 22°06' E 114°20'1611.7
2016-May-11 20:14N 22°16' E 114°06'1211.1
2016-May-11 19:11N 22°21' E 113°55'5 7.8
2016-May-11 18:33N 22°26' E 113°53'1 0.9
2016-May-11 17:23N 22°27' E 113°53'0 0.0
2016-May-11 16:29N 22°27' E 113°53'0 0.0
2016-May-11 15:29N 22°27' E 113°53'0 0.0
2016-May-11 14:23N 22°27' E 113°53'0 0.0
2016-May-11 13:29N 22°27' E 113°53'0 0.0
2016-May-11 12:29N 22°27' E 113°53'0 0.0
2016-May-11 11:29N 22°27' E 113°53'0 0.0
2016-May-11 10:23N 22°27' E 113°53'0 0.0
2016-May-11 09:29N 22°27' E 113°53'0 0.0
2016-May-11 08:29N 22°27' E 113°53'0 0.0
2016-May-11 07:33N 22°27' E 113°53'3 3.1
2016-May-11 06:33N 22°24' E 113°54'1110.6
2016-May-11 05:33N 22°20' E 114°05'2 1.7
2016-May-11 04:32N 22°19' E 114°05'0 0.1
2016-May-11 03:33N 22°19' E 114°05'0 0.0
2016-May-11 02:34N 22°19' E 114°05'0 0.1
2016-May-11 01:33N 22°19' E 114°05'3 3.0
2016-May-11 00:33N 22°20' E 114°08'0 0.0
2016-May-10 23:33N 22°20' E 114°08'0 0.0
2016-May-10 22:33N 22°20' E 114°08'0 0.1
2016-May-10 21:33N 22°20' E 114°08'0 0.1
2016-May-10 20:33N 22°20' E 114°08'0 0.0
2016-May-10 19:33N 22°20' E 114°08'0 0.0
2016-May-10 18:33N 22°20' E 114°08'0 0.0
2016-May-10 17:33N 22°20' E 114°08'0 0.1
2016-May-10 16:33N 22°20' E 114°08'0 0.1
2016-May-10 15:33N 22°20' E 114°08'11 7.2
2016-May-10 14:04N 22°10' E 114°13'6 9.6
2016-May-10 13:28N 22°08' E 114°19'21910.8
2016-May-09 17:07N 22°21' E 118°15'8615.5
2016-May-09 11:33N 22°28' E 119°48'1919.2
2016-May-09 10:33N 22°32' E 120°09'10 9.6
2016-May-09 09:33N 22°34' E 120°19'1 0.7
2016-May-09 08:28N 22°35' E 120°18'0 0.0
2016-May-09 07:04N 22°35' E 120°18'0 0.0
2016-May-09 06:28N 22°35' E 120°18'0 0.0
2016-May-09 05:28N 22°35' E 120°18'0 0.0
2016-May-09 04:28N 22°35' E 120°18'0 0.0
2016-May-09 03:28N 22°35' E 120°18'0 0.0
2016-May-09 02:28N 22°35' E 120°18'214 5.8
2016-May-07 13:33N 20°12' E 117°27'  
Track history (hours):
 
Tides and Currents Weather Stations Pressure Air Temp Water Temp Dewpoint Dewpoint Depression Visibility Wind Speed Wind Dir Waves Ship Positions

Corinthiakos

Last reported at 2016-May-16 04:26 UTC. Time now 2016-Jun-01 03:39 UTC.
Position N 01°54' E 102°21'.
Warning: this ship's position is 15 days out of date.

Length 262 m; draft 12.4 m.

Type: Cargo ship. MMSI: 636014516.

Date/timePositionNaut miles runAvg speedWind from/ knotsBaromVisibWave heightAir tempDewpointWater temp
2016-May-16 04:26N 01°54' E 102°21'1719.9
2016-May-16 03:33N 01°47' E 102°37'2020.0
2016-May-16 02:32N 01°39' E 102°55'4119.5
2016-May-16 00:25N 01°14' E 103°28'1618.8
2016-May-15 23:33N 01°09' E 103°43'1010.3
2016-May-15 22:33N 01°16' E 103°51'1 0.5
2016-May-15 21:32N 01°16' E 103°51'0 0.0
2016-May-15 20:32N 01°16' E 103°51'0 0.0
2016-May-15 19:32N 01°16' E 103°51'0 0.0
2016-May-15 18:29N 01°16' E 103°51'0 0.0
2016-May-15 17:29N 01°16' E 103°51'0 0.0
2016-May-15 16:32N 01°16' E 103°51'0 0.0
2016-May-15 15:32N 01°16' E 103°51'0 0.0
2016-May-15 14:29N 01°16' E 103°51'0 0.0
2016-May-15 13:29N 01°16' E 103°51'0 0.0
2016-May-15 12:32N 01°16' E 103°51'0 0.0
2016-May-15 11:32N 01°16' E 103°51'1 0.9
2016-May-15 10:34N 01°15' E 103°52'5 5.3
2016-May-15 09:34N 01°14' E 103°57'1211.8
2016-May-15 08:33N 01°17' E 104°09'  
2016-May-11 22:30N 21°52' E 114°25'1515.9
2016-May-11 21:33N 22°06' E 114°20'1611.7
2016-May-11 20:14N 22°16' E 114°06'1211.1
2016-May-11 19:11N 22°21' E 113°55'5 7.8
2016-May-11 18:33N 22°26' E 113°53'1 0.9
2016-May-11 17:23N 22°27' E 113°53'0 0.0
2016-May-11 16:29N 22°27' E 113°53'0 0.0
2016-May-11 15:29N 22°27' E 113°53'0 0.0
2016-May-11 14:23N 22°27' E 113°53'0 0.0
2016-May-11 13:29N 22°27' E 113°53'0 0.0
2016-May-11 12:29N 22°27' E 113°53'0 0.0
2016-May-11 11:29N 22°27' E 113°53'0 0.0
2016-May-11 10:23N 22°27' E 113°53'0 0.0
2016-May-11 09:29N 22°27' E 113°53'0 0.0
2016-May-11 08:29N 22°27' E 113°53'0 0.0
2016-May-11 07:33N 22°27' E 113°53'3 3.1
2016-May-11 06:33N 22°24' E 113°54'1110.6
2016-May-11 05:33N 22°20' E 114°05'2 1.7
2016-May-11 04:32N 22°19' E 114°05'0 0.1
2016-May-11 03:33N 22°19' E 114°05'0 0.0
2016-May-11 02:34N 22°19' E 114°05'0 0.1
2016-May-11 01:33N 22°19' E 114°05'3 3.0
2016-May-11 00:33N 22°20' E 114°08'0 0.0
2016-May-10 23:33N 22°20' E 114°08'0 0.0
2016-May-10 22:33N 22°20' E 114°08'0 0.1
2016-May-10 21:33N 22°20' E 114°08'0 0.1
2016-May-10 20:33N 22°20' E 114°08'0 0.0
2016-May-10 19:33N 22°20' E 114°08'0 0.0
2016-May-10 18:33N 22°20' E 114°08'0 0.0
2016-May-10 17:33N 22°20' E 114°08'0 0.1
2016-May-10 16:33N 22°20' E 114°08'0 0.1
2016-May-10 15:33N 22°20' E 114°08'11 7.2
2016-May-10 14:04N 22°10' E 114°13'6 9.6
2016-May-10 13:28N 22°08' E 114°19'21910.8
2016-May-09 17:07N 22°21' E 118°15'8615.5
2016-May-09 11:33N 22°28' E 119°48'1919.2
2016-May-09 10:33N 22°32' E 120°09'10 9.6
2016-May-09 09:33N 22°34' E 120°19'1 0.7
2016-May-09 08:28N 22°35' E 120°18'0 0.0
2016-May-09 07:04N 22°35' E 120°18'0 0.0
2016-May-09 06:28N 22°35' E 120°18'0 0.0
2016-May-09 05:28N 22°35' E 120°18'0 0.0
2016-May-09 04:28N 22°35' E 120°18'0 0.0
2016-May-09 03:28N 22°35' E 120°18'0 0.0
2016-May-09 02:28N 22°35' E 120°18'214 5.8
2016-May-07 13:33N 20°12' E 117°27'  

Dump ship's entire track history